Impacts TAF Board
For situational awareness. Not to be used for flight planning purposes.
IDs:

KJFK - New York/Kennedy Int, NY, US

Issued at 0210 UTC 23 Sep 2018
Updated at 0215 UTC 23 Sep 2018
Potential Impact None Slight Moderate High
Time0151Z 23/03Z 23/04Z 23/05Z 23/06Z 23/07Z 23/08Z 23/09Z 23/10Z 23/11Z 23/12Z 23/13Z 23/14Z 23/15Z>>
Type OBS PRVL PRVL PRVL PRVL PRVL PRVL PRVL PRVL PRVL
  [TEMP]  
PRVL
  [TEMP]  
PRVL PRVL PRVL
VIS 10 >6 >6 >6 >6 >6 >6 >6 >6 >6 >6 >6 >6 >6
CIG 250 200 200 200 200 200 200 200 200 200
  [40]  
200
  [40]  
40 40 40
Cover BKN BKN BKN BKN BKN BKN BKN BKN BKN BKN
  [BKN]  
BKN
  [BKN]  
BKN BKN BKN
FltCat VFR VFR VFR VFR VFR VFR VFR VFR VFR VFR
  [VFR]  
VFR
  [VFR]  
VFR VFR VFR
WX -- -- -- -- -- -- -- -- -- --
  [--]  
--
  [--]  
-- -- --
WDir 20 20 20 20 20 50 50 50 50 50
[50]
50
[50]
80 80 80
WSpd 7 8 8 8 8 6 6 6 6 6
  [6]  
6
  [6]  
7 7 7
WGst -- -- -- -- -- -- -- -- -- --
  [--]  
--
  [--]  
-- -- --
Raw TAF
KJFK 230210Z 2302/2406 02008KT P6SM BKN200
  FM230700 05006KT P6SM SCT040 BKN200
  TEMPO 2311/2313 BKN040
  FM231300 08007KT P6SM BKN040 BKN200
  FM231600 14008KT P6SM BKN035
  FM232200 15004KT P6SM BKN035
  FM240200 04004KT P6SM SCT035 SCT250


Raw METAR
KJFK 230151Z 02007KT 10SM SCT200 BKN250 18/11 A3022 RMK AO2 SLP232 T01780111
KJFK 230051Z 02006KT 10SM BKN180 BKN250 18/11 A3020 RMK AO2 SLP227 T01780106
KJFK 222351Z 36011KT 10SM BKN190 BKN250 19/10 A3019 RMK AO2 SLP221 T01890100 10228 20183 51012

METAR Board
Radar Display
Forecast Discussion
For situational awareness. Not to be used for flight planning purposes.